createdAt,value
2019-02-22T08:16:27.798Z,1023.42
2019-02-22T08:17:28.719Z,1023.44
2019-02-22T08:18:28.706Z,1023.47
2019-02-22T08:19:28.711Z,1023.51
2019-02-22T08:20:28.692Z,1023.51
2019-02-22T08:21:28.751Z,1023.46
2019-02-22T08:22:28.681Z,1023.50
2019-02-22T08:23:28.663Z,1023.46
2019-02-22T08:24:28.644Z,1023.46
2019-02-22T08:25:28.645Z,1023.48
2019-02-22T08:26:28.638Z,1023.48
2019-02-22T08:27:28.616Z,1023.47
2019-02-22T08:28:28.616Z,1023.49
2019-02-22T08:29:28.600Z,1023.50
2019-02-22T08:30:28.619Z,1023.51
2019-02-22T08:31:28.597Z,1023.49
2019-02-22T08:32:28.571Z,1023.54
2019-02-22T08:33:28.571Z,1023.55
2019-02-22T08:34:28.570Z,1023.57
2019-02-22T08:35:28.533Z,1023.62
2019-02-22T08:36:28.547Z,1023.63
2019-02-22T08:37:28.521Z,1023.64
2019-02-22T08:38:28.558Z,1023.65
2019-02-22T08:39:28.488Z,1023.65
2019-02-22T08:40:28.485Z,1023.65
2019-02-22T08:41:28.901Z,1023.70
2019-02-22T08:42:28.536Z,1023.73
2019-02-22T08:43:31.671Z,1023.72
2019-02-22T08:44:28.541Z,1023.72
2019-02-22T08:45:28.664Z,1023.79
2019-02-22T08:46:28.488Z,1023.78
2019-02-22T08:47:28.500Z,1023.81
2019-02-22T08:48:28.411Z,1023.80
2019-02-22T08:49:28.384Z,1023.80
2019-02-22T08:50:28.369Z,1023.85
2019-02-22T08:51:28.381Z,1023.87
2019-02-22T08:52:28.352Z,1023.86
2019-02-22T08:53:28.341Z,1023.86
2019-02-22T08:54:28.315Z,1023.88
2019-02-22T08:55:28.308Z,1023.90
2019-02-22T08:56:28.316Z,1023.91
2019-02-22T08:57:28.352Z,1023.91
2019-02-22T08:58:28.278Z,1023.97
2019-02-22T08:59:28.311Z,1023.93
2019-02-22T09:00:28.255Z,1023.95
2019-02-22T09:01:28.266Z,1023.97
2019-02-22T09:02:28.241Z,1023.99
2019-02-22T09:03:28.235Z,1024.02
2019-02-22T09:04:28.219Z,1024.03
2019-02-22T09:05:28.224Z,1024.03
2019-02-22T09:06:28.233Z,1024.02
2019-02-22T09:07:28.191Z,1024.05
2019-02-22T09:08:28.227Z,1024.04
2019-02-22T09:09:28.164Z,1024.08
2019-02-22T09:10:28.156Z,1024.08
2019-02-22T09:11:28.184Z,1024.10
2019-02-22T09:12:28.143Z,1024.12
2019-02-22T09:13:28.121Z,1024.12
2019-02-22T09:14:28.228Z,1024.15
2019-02-22T09:15:28.107Z,1024.17
2019-02-22T09:16:28.121Z,1024.16
2019-02-22T09:17:28.089Z,1024.19
2019-02-22T09:18:28.062Z,1024.19
2019-02-22T09:19:28.064Z,1024.19
2019-02-22T09:20:28.055Z,1024.23
2019-02-22T09:21:28.033Z,1024.16
2019-02-22T09:22:28.121Z,1024.16
2019-02-22T09:23:28.059Z,1024.21
2019-02-22T09:24:28.006Z,1024.19
2019-02-22T09:25:28.001Z,1024.22
2019-02-22T09:26:27.996Z,1024.23
2019-02-22T09:27:27.977Z,1024.25
2019-02-22T09:28:27.968Z,1024.25
2019-02-22T09:29:27.963Z,1024.30
2019-02-22T09:30:27.938Z,1024.34
2019-02-22T09:31:27.936Z,1024.39
2019-02-22T09:32:27.958Z,1024.33
2019-02-22T09:33:27.941Z,1024.35
2019-02-22T09:34:27.907Z,1024.31
2019-02-22T09:35:27.992Z,1024.38
2019-02-22T09:36:27.895Z,1024.37
2019-02-22T09:37:27.883Z,1024.42
2019-02-22T09:38:27.867Z,1024.40
2019-02-22T09:39:27.833Z,1024.42
2019-02-22T09:40:27.859Z,1024.39
2019-02-22T09:41:27.840Z,1024.44
2019-02-22T09:42:27.835Z,1024.40
2019-02-22T09:43:27.797Z,1024.40
2019-02-22T09:44:27.781Z,1024.46
2019-02-22T09:45:27.764Z,1024.46
2019-02-22T09:46:27.755Z,1024.48
2019-02-22T09:47:27.767Z,1024.49
2019-02-22T09:48:28.545Z,1024.53
2019-02-22T09:49:27.730Z,1024.50
2019-02-22T09:50:27.708Z,1024.50
2019-02-22T09:51:27.714Z,1024.54
2019-02-22T09:52:27.914Z,1024.53
2019-02-22T09:53:27.803Z,1024.55
2019-02-22T09:54:27.736Z,1024.53
2019-02-22T09:55:27.695Z,1024.57
2019-02-22T09:56:27.659Z,1024.56
2019-02-22T09:57:27.668Z,1024.60
2019-02-22T09:58:27.635Z,1024.56
2019-02-22T09:59:27.630Z,1024.56
2019-02-22T10:00:27.601Z,1024.59
2019-02-22T10:01:27.602Z,1024.53
2019-02-22T10:02:27.622Z,1024.60
2019-02-22T10:03:27.589Z,1024.60
2019-02-22T10:04:28.105Z,1024.60
2019-02-22T10:05:27.565Z,1024.69
2019-02-22T10:06:27.560Z,1024.68
2019-02-22T10:07:27.580Z,1024.71
2019-02-22T10:08:27.541Z,1024.70
2019-02-22T10:09:27.700Z,1024.68
2019-02-22T10:10:28.525Z,1024.70
2019-02-22T10:11:27.631Z,1024.77
2019-02-22T10:12:27.592Z,1024.69
2019-02-22T10:13:27.669Z,1024.70
2019-02-22T10:14:28.482Z,1024.74
2019-02-22T10:15:27.642Z,1024.70
2019-02-22T10:17:36.698Z,1024.77
2019-02-22T10:18:37.634Z,1024.69
2019-02-22T10:19:37.946Z,1024.70
2019-02-22T10:20:37.641Z,1024.71
2019-02-22T10:21:37.617Z,1024.76
2019-02-22T10:22:37.707Z,1024.79
2019-02-22T10:23:37.579Z,1024.75
2019-02-22T10:24:37.704Z,1024.76
2019-02-22T10:25:37.598Z,1024.78
2019-02-22T10:26:37.554Z,1024.83
2019-02-22T10:27:37.594Z,1024.81
2019-02-22T10:28:37.541Z,1024.84
2019-02-22T10:29:37.541Z,1024.82
2019-02-22T10:30:37.574Z,1024.82
2019-02-22T10:31:37.504Z,1024.87
2019-02-22T10:32:37.523Z,1024.87
2019-02-22T10:33:37.501Z,1024.98
2019-02-22T10:34:37.469Z,1024.91
2019-02-22T10:35:37.473Z,1024.87
2019-02-22T10:36:44.751Z,1024.96
2019-02-22T10:37:37.458Z,1024.94
2019-02-22T10:38:37.419Z,1024.85
2019-02-22T10:39:37.408Z,1024.90
2019-02-22T10:40:39.256Z,1024.92
2019-02-22T10:41:37.382Z,1024.92
2019-02-22T10:42:37.393Z,1024.93
2019-02-22T10:43:37.359Z,1024.90
2019-02-22T10:44:37.361Z,1024.95
2019-02-22T10:45:37.344Z,1024.96
2019-02-22T10:46:37.378Z,1024.91
2019-02-22T10:47:37.349Z,1024.93
2019-02-22T10:48:37.328Z,1024.92
2019-02-22T10:49:37.303Z,1024.96
2019-02-22T10:50:37.295Z,1024.96
2019-02-22T10:51:37.316Z,1024.97
2019-02-22T10:52:37.290Z,1024.98
2019-02-22T10:53:37.258Z,1025.05
2019-02-22T10:54:37.239Z,1025.01
2019-02-22T10:55:37.244Z,1025.06
2019-02-22T10:56:39.175Z,1025.11
2019-02-22T10:57:37.235Z,1025.15
2019-02-22T10:58:37.219Z,1025.12
2019-02-22T10:59:37.181Z,1025.12
2019-02-22T11:00:37.184Z,1025.12
2019-02-22T11:01:37.155Z,1025.11
2019-02-22T11:02:37.175Z,1025.11
2019-02-22T11:03:37.145Z,1025.12
2019-02-22T11:04:37.134Z,1025.12
2019-02-22T11:05:37.109Z,1025.12
2019-02-22T11:06:37.116Z,1025.11
2019-02-22T11:07:37.467Z,1025.13
2019-02-22T11:08:37.089Z,1025.20
2019-02-22T11:09:37.078Z,1025.21
2019-02-22T11:10:37.060Z,1025.21
2019-02-22T11:11:37.102Z,1025.19
2019-02-22T11:12:37.053Z,1025.16
2019-02-22T11:13:37.039Z,1025.20
2019-02-22T11:14:37.018Z,1025.18
2019-02-22T11:15:37.001Z,1025.16
2019-02-22T11:16:36.995Z,1025.15
2019-02-22T11:17:36.979Z,1025.20
2019-02-22T11:18:39.310Z,1025.25
2019-02-22T11:19:36.964Z,1025.25
2019-02-22T11:20:36.947Z,1025.26
2019-02-22T11:21:36.951Z,1025.24
2019-02-22T11:22:36.936Z,1025.20
2019-02-22T11:23:36.945Z,1025.19
2019-02-22T11:24:36.919Z,1025.22
2019-02-22T11:25:36.904Z,1025.21
2019-02-22T11:26:36.875Z,1025.24
2019-02-22T11:27:36.868Z,1025.24
2019-02-22T11:28:36.906Z,1025.27
2019-02-22T11:29:36.953Z,1025.32
2019-02-22T11:30:36.928Z,1025.33
2019-02-22T11:31:36.833Z,1025.34
2019-02-22T11:32:36.948Z,1025.35
2019-02-22T11:33:36.823Z,1025.34
2019-02-22T11:34:36.798Z,1025.33
2019-02-22T11:35:36.784Z,1025.34
2019-02-22T11:36:36.793Z,1025.34
2019-02-22T11:37:36.854Z,1025.35
2019-02-22T11:38:36.777Z,1025.33
2019-02-22T11:39:36.750Z,1025.42
2019-02-22T11:40:36.735Z,1025.43
2019-02-22T11:41:36.710Z,1025.39
2019-02-22T11:42:36.709Z,1025.41
2019-02-22T11:43:36.727Z,1025.39
2019-02-22T11:44:40.152Z,1025.40
2019-02-22T11:45:36.718Z,1025.42
2019-02-22T11:46:36.676Z,1025.39
2019-02-22T11:47:36.658Z,1025.31
2019-02-22T11:48:36.665Z,1025.31
2019-02-22T11:49:36.640Z,1025.27
2019-02-22T11:50:36.623Z,1025.32
2019-02-22T11:51:36.615Z,1025.32
2019-02-22T11:52:36.609Z,1025.30
2019-02-22T11:53:36.614Z,1025.34
2019-02-22T11:54:36.627Z,1025.34
2019-02-22T11:55:36.559Z,1025.34
2019-02-22T11:56:36.571Z,1025.34
2019-02-22T11:57:36.556Z,1025.37
2019-02-22T11:58:36.558Z,1025.42
2019-02-22T11:59:36.522Z,1025.47
2019-02-22T12:00:36.505Z,1025.47
2019-02-22T12:01:36.512Z,1025.50
2019-02-22T12:02:36.500Z,1025.43
2019-02-22T12:03:36.507Z,1025.50
2019-02-22T12:04:36.469Z,1025.47
2019-02-22T12:05:36.474Z,1025.51
2019-02-22T12:06:36.462Z,1025.54
2019-02-22T12:07:36.447Z,1025.50
2019-02-22T12:08:36.440Z,1025.49
2019-02-22T12:09:36.421Z,1025.44
2019-02-22T12:10:36.392Z,1025.53
2019-02-22T12:11:36.405Z,1025.53
2019-02-22T12:12:36.374Z,1025.52
2019-02-22T12:13:36.389Z,1025.51
2019-02-22T12:14:36.352Z,1025.51
2019-02-22T12:15:36.350Z,1025.48
2019-02-22T12:16:37.198Z,1025.49
2019-02-22T12:18:46.673Z,1025.51
2019-02-22T12:19:47.643Z,1025.47
2019-02-22T12:20:47.624Z,1025.44
2019-02-22T12:21:47.672Z,1025.46
2019-02-22T12:22:47.645Z,1025.45
2019-02-22T12:23:48.043Z,1025.54
2019-02-22T12:24:47.577Z,1025.52
2019-02-22T12:25:47.604Z,1025.60
2019-02-22T12:26:47.568Z,1025.61
2019-02-22T12:27:47.588Z,1025.66
2019-02-22T12:28:47.573Z,1025.63
2019-02-22T12:29:47.557Z,1025.65
2019-02-22T12:30:47.526Z,1025.65
2019-02-22T12:31:47.505Z,1025.67
2019-02-22T12:32:47.497Z,1025.71
2019-02-22T12:33:47.508Z,1025.68
2019-02-22T12:34:47.509Z,1025.70
2019-02-22T12:35:47.469Z,1025.67
2019-02-22T12:36:47.476Z,1025.67
2019-02-22T12:37:47.440Z,1025.70
2019-02-22T12:38:47.521Z,1025.66
2019-02-22T12:39:47.456Z,1025.67
2019-02-22T12:40:47.562Z,1025.64
2019-02-22T12:41:47.438Z,1025.65
2019-02-22T12:42:47.439Z,1025.70
2019-02-22T12:43:47.419Z,1025.68
2019-02-22T12:44:47.423Z,1025.70
2019-02-22T12:45:47.439Z,1025.71
2019-02-22T12:46:47.401Z,1025.74
2019-02-22T12:47:47.390Z,1025.74
2019-02-22T12:48:47.328Z,1025.76
2019-02-22T12:49:47.330Z,1025.76
2019-02-22T12:50:47.333Z,1025.77
2019-02-22T12:51:47.298Z,1025.78
2019-02-22T12:52:47.278Z,1025.75
2019-02-22T12:53:47.272Z,1025.72
2019-02-22T12:54:47.268Z,1025.75
2019-02-22T12:55:47.256Z,1025.76
2019-02-22T12:56:57.552Z,1025.72
2019-02-22T12:57:47.237Z,1025.74
2019-02-22T12:58:47.226Z,1025.74
2019-02-22T12:59:47.371Z,1025.73
2019-02-22T13:00:47.249Z,1025.80
2019-02-22T13:01:47.262Z,1025.78
2019-02-22T13:02:47.267Z,1025.81
2019-02-22T13:03:47.173Z,1025.81
2019-02-22T13:04:47.174Z,1025.79
2019-02-22T13:05:47.172Z,1025.82
2019-02-22T13:06:47.162Z,1025.76
2019-02-22T13:07:47.118Z,1025.78
2019-02-22T13:08:47.105Z,1025.80
2019-02-22T13:09:47.121Z,1025.79
2019-02-22T13:10:47.081Z,1025.75
2019-02-22T13:11:47.107Z,1025.75
2019-02-22T13:12:47.074Z,1025.76
2019-02-22T13:13:47.053Z,1025.80
2019-02-22T13:14:47.107Z,1025.78
2019-02-22T13:15:47.077Z,1025.80
2019-02-22T13:16:46.998Z,1025.82
2019-02-22T13:17:47.017Z,1025.79
2019-02-22T13:18:47.047Z,1025.80
2019-02-22T13:19:47.005Z,1025.75
2019-02-22T13:20:47.065Z,1025.72
2019-02-22T13:21:47.195Z,1025.72
2019-02-22T13:22:46.943Z,1025.72
2019-02-22T13:23:47.038Z,1025.75
2019-02-22T13:24:47.097Z,1025.73
2019-02-22T13:25:46.915Z,1025.73
2019-02-22T13:26:46.909Z,1025.72
2019-02-22T13:27:46.890Z,1025.71
2019-02-22T13:28:46.883Z,1025.70
2019-02-22T13:29:46.900Z,1025.72
2019-02-22T13:30:46.886Z,1025.73
2019-02-22T13:31:46.869Z,1025.75
2019-02-22T13:32:47.153Z,1025.74
2019-02-22T13:33:46.866Z,1025.79
2019-02-22T13:34:46.799Z,1025.80
2019-02-22T13:35:47.154Z,1025.82
2019-02-22T13:36:47.212Z,1025.82
2019-02-22T13:37:46.775Z,1025.81
2019-02-22T13:38:46.781Z,1025.86
2019-02-22T13:39:46.753Z,1025.84
2019-02-22T13:40:49.212Z,1025.86
2019-02-22T13:41:46.746Z,1025.83
2019-02-22T13:42:46.771Z,1025.83
2019-02-22T13:43:47.065Z,1025.83
2019-02-22T13:44:47.143Z,1025.80
2019-02-22T13:45:46.736Z,1025.83
2019-02-22T13:46:46.681Z,1025.80
2019-02-22T13:47:46.666Z,1025.77
2019-02-22T13:48:46.664Z,1025.78
2019-02-22T13:49:46.648Z,1025.81
2019-02-22T13:50:46.692Z,1025.81
2019-02-22T13:51:46.651Z,1025.82
2019-02-22T13:52:46.661Z,1025.85
2019-02-22T13:53:46.626Z,1025.92
2019-02-22T13:54:46.653Z,1025.93
2019-02-22T13:55:46.643Z,1025.95
2019-02-22T13:56:46.605Z,1026.02
2019-02-22T13:57:46.572Z,1026.01
2019-02-22T13:58:46.610Z,1025.97
2019-02-22T13:59:48.095Z,1025.96
2019-02-22T14:00:46.561Z,1025.96
2019-02-22T14:01:46.553Z,1025.97
2019-02-22T14:02:46.503Z,1025.96
2019-02-22T14:03:46.521Z,1025.97
2019-02-22T14:04:46.649Z,1026.02
2019-02-22T14:05:46.492Z,1025.98
2019-02-22T14:06:46.491Z,1026.01
2019-02-22T14:07:46.463Z,1025.99
2019-02-22T14:08:46.458Z,1026.00
2019-02-22T14:09:46.463Z,1025.97
2019-02-22T14:10:46.492Z,1025.99
2019-02-22T14:11:46.415Z,1026.01
2019-02-22T14:12:46.409Z,1026.07
2019-02-22T14:13:46.385Z,1026.10
2019-02-22T14:14:46.441Z,1026.10
2019-02-22T14:15:46.372Z,1026.10
2019-02-22T14:16:46.392Z,1026.08
2019-02-22T14:17:46.360Z,1026.08
2019-02-22T14:19:55.516Z,1026.15
2019-02-22T14:20:56.518Z,1026.15
2019-02-22T14:21:56.493Z,1026.17
2019-02-22T14:22:56.478Z,1026.16
2019-02-22T14:23:56.476Z,1026.12
2019-02-22T14:24:56.470Z,1026.14
2019-02-22T14:25:56.470Z,1026.16
2019-02-22T14:26:56.440Z,1026.15
2019-02-22T14:27:56.419Z,1026.19
2019-02-22T14:28:56.421Z,1026.22
2019-02-22T14:29:56.403Z,1026.21
2019-02-22T14:30:56.398Z,1026.24
2019-02-22T14:31:56.397Z,1026.23
2019-02-22T14:32:56.385Z,1026.25
2019-02-22T14:33:56.367Z,1026.23
2019-02-22T14:34:56.356Z,1026.20
2019-02-22T14:35:56.354Z,1026.21
2019-02-22T14:36:56.334Z,1026.20
2019-02-22T14:37:56.420Z,1026.14
2019-02-22T14:38:56.308Z,1026.08
2019-02-22T14:40:02.533Z,1026.08
2019-02-22T14:40:56.324Z,1026.09
2019-02-22T14:41:56.270Z,1026.09
2019-02-22T14:42:56.275Z,1026.04
2019-02-22T14:43:56.261Z,1026.07
2019-02-22T14:44:56.246Z,1026.07
2019-02-22T14:45:56.251Z,1026.16
2019-02-22T14:46:56.227Z,1026.14
2019-02-22T14:47:56.201Z,1026.13
2019-02-22T14:48:56.198Z,1026.16
2019-02-22T14:49:56.191Z,1026.14
2019-02-22T14:50:56.210Z,1026.11
2019-02-22T14:51:56.159Z,1026.09
2019-02-22T14:52:56.163Z,1026.10
2019-02-22T14:53:56.144Z,1026.05
2019-02-22T14:54:56.134Z,1026.04
2019-02-22T14:55:56.151Z,1026.07
2019-02-22T14:56:56.111Z,1026.08
2019-02-22T14:57:56.112Z,1026.06
2019-02-22T14:58:56.777Z,1026.07
2019-02-22T14:59:56.072Z,1026.05
2019-02-22T15:00:56.087Z,1026.07
2019-02-22T15:01:56.072Z,1026.04
2019-02-22T15:02:56.061Z,1026.05
2019-02-22T15:03:56.043Z,1026.05
2019-02-22T15:04:56.759Z,1026.04
2019-02-22T15:05:56.010Z,1026.07
2019-02-22T15:06:56.003Z,1026.12
2019-02-22T15:07:55.991Z,1026.10
2019-02-22T15:08:55.989Z,1026.10
2019-02-22T15:09:55.966Z,1026.13
2019-02-22T15:10:55.970Z,1026.09
2019-02-22T15:11:55.972Z,1026.06
2019-02-22T15:12:55.937Z,1026.06
2019-02-22T15:13:55.914Z,1026.11
2019-02-22T15:14:55.904Z,1026.09
2019-02-22T15:16:00.527Z,1026.11
2019-02-22T15:16:55.906Z,1026.15
2019-02-22T15:17:55.882Z,1026.18
2019-02-22T15:18:55.869Z,1026.25
2019-02-22T15:19:55.861Z,1026.28
2019-02-22T15:20:55.840Z,1026.29
2019-02-22T15:21:55.848Z,1026.27
2019-02-22T15:22:55.825Z,1026.28
2019-02-22T15:23:55.826Z,1026.26
2019-02-22T15:24:55.796Z,1026.30
2019-02-22T15:25:55.786Z,1026.32
2019-02-22T15:26:55.802Z,1026.30
2019-02-22T15:27:55.778Z,1026.30
2019-02-22T15:28:55.752Z,1026.28
2019-02-22T15:29:55.907Z,1026.27
2019-02-22T15:30:55.746Z,1026.24
2019-02-22T15:31:55.744Z,1026.33
2019-02-22T15:32:55.708Z,1026.30
2019-02-22T15:33:57.316Z,1026.40
2019-02-22T15:34:55.695Z,1026.34
2019-02-22T15:35:55.677Z,1026.38
2019-02-22T15:36:55.694Z,1026.37
2019-02-22T15:37:55.676Z,1026.42
2019-02-22T15:38:55.680Z,1026.41
2019-02-22T15:39:55.683Z,1026.38
2019-02-22T15:40:55.675Z,1026.40
2019-02-22T15:41:55.721Z,1026.31
2019-02-22T15:42:55.611Z,1026.36
2019-02-22T15:43:55.614Z,1026.36
2019-02-22T15:44:55.613Z,1026.31
2019-02-22T15:45:55.576Z,1026.36
2019-02-22T15:46:55.578Z,1026.32
2019-02-22T15:47:55.553Z,1026.29
2019-02-22T15:48:55.549Z,1026.28
2019-02-22T15:49:55.527Z,1026.26
2019-02-22T15:50:55.522Z,1026.24
2019-02-22T15:51:55.528Z,1026.22
2019-02-22T15:52:55.497Z,1026.25
2019-02-22T15:53:55.482Z,1026.31
2019-02-22T15:54:55.479Z,1026.30
2019-02-22T15:55:55.463Z,1026.33
2019-02-22T15:56:55.472Z,1026.31
2019-02-22T15:57:55.449Z,1026.34
2019-02-22T15:58:55.435Z,1026.43
2019-02-22T15:59:55.420Z,1026.40
2019-02-22T16:00:55.415Z,1026.42
2019-02-22T16:01:56.143Z,1026.44
2019-02-22T16:02:55.389Z,1026.42
2019-02-22T16:03:55.379Z,1026.47
2019-02-22T16:04:55.376Z,1026.47
2019-02-22T16:05:55.350Z,1026.49
2019-02-22T16:06:55.371Z,1026.49
2019-02-22T16:07:55.341Z,1026.56
2019-02-22T16:08:55.325Z,1026.55
2019-02-22T16:09:55.316Z,1026.51
2019-02-22T16:10:55.295Z,1026.52
2019-02-22T16:11:55.313Z,1026.55
2019-02-22T16:12:55.305Z,1026.55
2019-02-22T16:13:55.277Z,1026.52
2019-02-22T16:14:55.258Z,1026.50
2019-02-22T16:15:55.249Z,1026.57
2019-02-22T16:16:55.253Z,1026.60
2019-02-22T16:17:55.222Z,1026.57
2019-02-22T16:18:55.221Z,1026.58
2019-02-22T16:21:04.402Z,1026.66
2019-02-22T16:22:05.400Z,1026.63
2019-02-22T16:23:05.360Z,1026.66
2019-02-22T16:24:05.367Z,1026.64
2019-02-22T16:25:05.338Z,1026.67
2019-02-22T16:26:05.342Z,1026.65
2019-02-22T16:27:05.459Z,1026.69
2019-02-22T16:28:05.403Z,1026.65
2019-02-22T16:29:05.307Z,1026.61
2019-02-22T16:30:05.344Z,1026.65
2019-02-22T16:31:05.289Z,1026.65
2019-02-22T16:32:05.335Z,1026.68
2019-02-22T16:33:05.274Z,1026.66
2019-02-22T16:34:05.269Z,1026.66
2019-02-22T16:35:05.240Z,1026.72
2019-02-22T16:36:05.427Z,1026.67
2019-02-22T16:37:05.246Z,1026.71
2019-02-22T16:38:05.202Z,1026.69
2019-02-22T16:39:05.190Z,1026.74
2019-02-22T16:40:05.204Z,1026.72
2019-02-22T16:41:05.176Z,1026.71
2019-02-22T16:42:05.193Z,1026.74
2019-02-22T16:43:05.162Z,1026.78
2019-02-22T16:44:05.146Z,1026.74
2019-02-22T16:45:05.244Z,1026.75
2019-02-22T16:46:05.122Z,1026.76
2019-02-22T16:47:05.131Z,1026.81
2019-02-22T16:48:05.100Z,1026.89
2019-02-22T16:49:05.086Z,1026.86
2019-02-22T16:50:05.097Z,1026.83
2019-02-22T16:51:05.101Z,1026.87
2019-02-22T16:52:05.089Z,1026.87
2019-02-22T16:53:05.076Z,1026.87
2019-02-22T16:54:05.037Z,1026.87
2019-02-22T16:55:05.025Z,1026.86
2019-02-22T16:56:05.023Z,1026.88
2019-02-22T16:57:05.009Z,1026.86
2019-02-22T16:58:05.015Z,1026.85
2019-02-22T16:59:04.981Z,1026.84
2019-02-22T17:00:04.973Z,1026.82
2019-02-22T17:01:04.968Z,1026.84
2019-02-22T17:02:04.954Z,1026.83
2019-02-22T17:03:04.963Z,1026.88
2019-02-22T17:04:04.936Z,1026.90
2019-02-22T17:05:04.937Z,1026.99
2019-02-22T17:06:04.901Z,1027.07
2019-02-22T17:07:04.920Z,1027.05
2019-02-22T17:08:04.902Z,1027.07
2019-02-22T17:09:04.881Z,1027.07
2019-02-22T17:10:04.860Z,1027.07
2019-02-22T17:11:04.864Z,1027.13
2019-02-22T17:12:06.706Z,1027.09
2019-02-22T17:13:04.862Z,1027.13
2019-02-22T17:14:04.820Z,1027.15
2019-02-22T17:15:04.812Z,1027.14
2019-02-22T17:16:04.800Z,1027.14
2019-02-22T17:17:04.793Z,1027.12
2019-02-22T17:18:04.804Z,1027.16
2019-02-22T17:19:04.766Z,1027.14
2019-02-22T17:20:04.756Z,1027.19
2019-02-22T17:21:04.737Z,1027.10
2019-02-22T17:22:04.729Z,1027.17
2019-02-22T17:23:04.748Z,1027.18
2019-02-22T17:24:04.722Z,1027.17
2019-02-22T17:25:04.699Z,1027.18
2019-02-22T17:26:04.698Z,1027.15
2019-02-22T17:27:04.681Z,1027.22
2019-02-22T17:28:04.690Z,1027.19
2019-02-22T17:29:04.663Z,1027.19
2019-02-22T17:30:04.649Z,1027.16
2019-02-22T17:31:04.633Z,1027.17
2019-02-22T17:32:04.621Z,1027.17
2019-02-22T17:33:04.631Z,1027.14
2019-02-22T17:34:04.616Z,1027.15
2019-02-22T17:35:04.589Z,1027.21
2019-02-22T17:36:04.587Z,1027.18
2019-02-22T17:37:04.569Z,1027.20
2019-02-22T17:38:04.596Z,1027.24
2019-02-22T17:39:04.558Z,1027.27
2019-02-22T17:40:04.542Z,1027.33
2019-02-22T17:41:04.537Z,1027.32
2019-02-22T17:42:04.525Z,1027.38
2019-02-22T17:43:04.528Z,1027.42
2019-02-22T17:44:04.494Z,1027.50
2019-02-22T17:45:04.488Z,1027.55
2019-02-22T17:46:04.474Z,1027.55
2019-02-22T17:47:06.528Z,1027.54
2019-02-22T17:48:04.479Z,1027.50
2019-02-22T17:49:04.435Z,1027.56
2019-02-22T17:50:04.434Z,1027.56
2019-02-22T17:51:04.431Z,1027.59
2019-02-22T17:52:04.418Z,1027.62
2019-02-22T17:53:04.417Z,1027.58
2019-02-22T17:54:04.400Z,1027.55
2019-02-22T17:55:04.383Z,1027.54
2019-02-22T17:56:04.371Z,1027.51
2019-02-22T17:57:04.359Z,1027.46
2019-02-22T17:58:04.371Z,1027.45
2019-02-22T17:59:04.350Z,1027.43
2019-02-22T18:00:04.349Z,1027.45
2019-02-22T18:01:04.319Z,1027.38
2019-02-22T18:02:04.293Z,1027.47
2019-02-22T18:03:04.314Z,1027.44
2019-02-22T18:04:04.288Z,1027.43
2019-02-22T18:05:04.275Z,1027.43
2019-02-22T18:06:04.259Z,1027.43
2019-02-22T18:07:04.250Z,1027.46
2019-02-22T18:08:04.252Z,1027.39
2019-02-22T18:09:04.234Z,1027.46
2019-02-22T18:10:04.228Z,1027.49
2019-02-22T18:11:04.221Z,1027.52
2019-02-22T18:12:04.201Z,1027.51
2019-02-22T18:13:04.215Z,1027.58
2019-02-22T18:14:04.181Z,1027.63
2019-02-22T18:15:04.653Z,1027.62
2019-02-22T18:16:04.188Z,1027.62
2019-02-22T18:17:08.474Z,1027.58
2019-02-22T18:18:04.141Z,1027.55
2019-02-22T18:19:04.123Z,1027.55
2019-02-22T18:20:04.114Z,1027.54
2019-02-22T18:22:13.311Z,1027.56
2019-02-22T18:23:14.313Z,1027.62
2019-02-22T18:24:14.276Z,1027.62
2019-02-22T18:25:14.266Z,1027.66
2019-02-22T18:26:14.256Z,1027.70
2019-02-22T18:27:14.266Z,1027.70
2019-02-22T18:28:14.243Z,1027.73
2019-02-22T18:29:14.230Z,1027.72
2019-02-22T18:30:14.237Z,1027.71
2019-02-22T18:31:14.212Z,1027.69
2019-02-22T18:32:14.199Z,1027.74
2019-02-22T18:33:14.207Z,1027.73
2019-02-22T18:34:14.169Z,1027.74
2019-02-22T18:35:14.164Z,1027.74
2019-02-22T18:36:14.153Z,1027.77
2019-02-22T18:37:14.135Z,1027.79
2019-02-22T18:38:15.265Z,1027.76
2019-02-22T18:39:14.125Z,1027.80
2019-02-22T18:40:14.102Z,1027.79
2019-02-22T18:41:14.099Z,1027.77
2019-02-22T18:42:14.090Z,1027.79
2019-02-22T18:43:14.101Z,1027.77
2019-02-22T18:44:14.062Z,1027.78
2019-02-22T18:45:14.054Z,1027.79
2019-02-22T18:46:14.031Z,1027.79
2019-02-22T18:47:19.334Z,1027.74
2019-02-22T18:48:14.022Z,1027.68
2019-02-22T18:49:14.008Z,1027.70
2019-02-22T18:50:13.997Z,1027.72
2019-02-22T18:51:13.989Z,1027.77
2019-02-22T18:52:13.967Z,1027.76
2019-02-22T18:53:13.958Z,1027.74
2019-02-22T18:54:13.969Z,1027.77
2019-02-22T18:55:13.933Z,1027.72
2019-02-22T18:56:13.930Z,1027.72
2019-02-22T18:57:13.913Z,1027.73
2019-02-22T18:58:13.902Z,1027.71
2019-02-22T18:59:13.916Z,1027.69
2019-02-22T19:00:13.886Z,1027.66
2019-02-22T19:01:13.875Z,1027.68
2019-02-22T19:02:13.856Z,1027.74
2019-02-22T19:03:13.855Z,1027.77
2019-02-22T19:04:13.872Z,1027.76
2019-02-22T19:05:13.837Z,1027.80
2019-02-22T19:06:13.823Z,1027.74
2019-02-22T19:07:13.807Z,1027.72
2019-02-22T19:08:13.795Z,1027.67
2019-02-22T19:09:13.803Z,1027.64
2019-02-22T19:10:13.772Z,1027.60
2019-02-22T19:11:13.769Z,1027.59
2019-02-22T19:12:13.753Z,1027.58
2019-02-22T19:13:13.738Z,1027.54
2019-02-22T19:14:13.750Z,1027.54
2019-02-22T19:15:13.715Z,1027.57
2019-02-22T19:16:13.710Z,1027.64
2019-02-22T19:17:13.689Z,1027.68
2019-02-22T19:18:13.681Z,1027.69
2019-02-22T19:19:14.664Z,1027.68
2019-02-22T19:20:13.662Z,1027.76
2019-02-22T19:21:13.682Z,1027.77
2019-02-22T19:22:13.634Z,1027.77
2019-02-22T19:23:13.639Z,1027.78
2019-02-22T19:24:13.633Z,1027.81
2019-02-22T19:25:13.617Z,1027.81
2019-02-22T19:26:13.601Z,1027.79
2019-02-22T19:27:13.608Z,1027.77
2019-02-22T19:28:13.572Z,1027.77
2019-02-22T19:29:13.590Z,1027.76
2019-02-22T19:30:13.570Z,1027.73
2019-02-22T19:31:13.548Z,1027.66
2019-02-22T19:32:13.550Z,1027.70
2019-02-22T19:33:13.518Z,1027.76
2019-02-22T19:34:13.534Z,1027.76
2019-02-22T19:35:13.494Z,1027.83
2019-02-22T19:36:13.487Z,1027.86
2019-02-22T19:37:13.475Z,1027.89
2019-02-22T19:38:13.469Z,1027.90
2019-02-22T19:39:13.555Z,1027.87
2019-02-22T19:40:13.436Z,1027.87
2019-02-22T19:41:13.423Z,1027.82
2019-02-22T19:42:13.435Z,1027.80
2019-02-22T19:43:13.411Z,1027.79
2019-02-22T19:44:13.433Z,1027.75
2019-02-22T19:45:13.392Z,1027.73
2019-02-22T19:46:13.386Z,1027.69
2019-02-22T19:47:13.372Z,1027.72
2019-02-22T19:48:13.359Z,1027.68
2019-02-22T19:49:13.363Z,1027.70
2019-02-22T19:50:13.332Z,1027.73
2019-02-22T19:51:13.315Z,1027.73
2019-02-22T19:52:13.315Z,1027.68
2019-02-22T19:53:13.300Z,1027.67
2019-02-22T19:54:13.324Z,1027.67
2019-02-22T19:55:13.281Z,1027.67
2019-02-22T19:56:13.276Z,1027.69
2019-02-22T19:57:13.263Z,1027.75
2019-02-22T19:58:13.242Z,1027.84
2019-02-22T19:59:13.251Z,1027.81
2019-02-22T20:00:13.230Z,1027.80
2019-02-22T20:01:13.215Z,1027.78
2019-02-22T20:02:13.207Z,1027.76
2019-02-22T20:03:13.189Z,1027.77
2019-02-22T20:04:13.197Z,1027.72
2019-02-22T20:05:13.178Z,1027.74
2019-02-22T20:06:13.169Z,1027.73
2019-02-22T20:07:13.154Z,1027.72
2019-02-22T20:08:13.164Z,1027.76
2019-02-22T20:09:13.147Z,1027.78
2019-02-22T20:10:17.754Z,1027.85
2019-02-22T20:11:13.104Z,1027.77
2019-02-22T20:12:13.086Z,1027.76
2019-02-22T20:13:13.087Z,1027.77
2019-02-22T20:14:13.090Z,1027.77
2019-02-22T20:15:13.074Z,1027.81
2019-02-22T20:16:13.054Z,1027.81
2019-02-22T20:17:13.030Z,1027.84
2019-02-22T20:18:13.024Z,1027.85
2019-02-22T20:19:13.011Z,1027.80
2019-02-22T20:20:13.007Z,1027.81
2019-02-22T20:21:12.986Z,1027.80
2019-02-22T20:23:22.476Z,1027.87
2019-02-22T20:24:23.387Z,1027.91
2019-02-22T20:25:23.345Z,1027.99
2019-02-22T20:26:23.334Z,1027.93
2019-02-22T20:27:23.323Z,1027.97
2019-02-22T20:28:24.752Z,1028.02